sensor_id;sensor_type;location;lat;lon;timestamp;P1;durP1;ratioP1;P2;durP2;ratioP2
68653;SDS011;55636;51.108;13.622;2024-01-06T00:00:42;11.73;;;9.17;;
68653;SDS011;55636;51.108;13.622;2024-01-06T00:01:45;10.80;;;8.77;;
68653;SDS011;55636;51.108;13.622;2024-01-06T00:02:47;10.03;;;8.47;;
68653;SDS011;55636;51.108;13.622;2024-01-06T00:03:50;11.50;;;8.90;;
68653;SDS011;55636;51.108;13.622;2024-01-06T00:04:52;11.60;;;8.83;;
68653;SDS011;55636;51.108;13.622;2024-01-06T00:05:55;10.80;;;8.67;;
68653;SDS011;55636;51.108;13.622;2024-01-06T00:06:58;11.53;;;8.47;;
68653;SDS011;55636;51.108;13.622;2024-01-06T00:08:00;12.57;;;9.20;;
68653;SDS011;55636;51.108;13.622;2024-01-06T00:09:03;10.33;;;8.67;;
68653;SDS011;55636;51.108;13.622;2024-01-06T00:10:06;11.10;;;9.30;;
68653;SDS011;55636;51.108;13.622;2024-01-06T00:11:09;10.37;;;8.57;;
68653;SDS011;55636;51.108;13.622;2024-01-06T00:12:13;11.17;;;8.83;;
68653;SDS011;55636;51.108;13.622;2024-01-06T00:13:17;12.50;;;9.20;;
68653;SDS011;55636;51.108;13.622;2024-01-06T00:14:19;10.33;;;8.73;;
68653;SDS011;55636;51.108;13.622;2024-01-06T00:15:22;11.10;;;8.17;;
68653;SDS011;55636;51.108;13.622;2024-01-06T00:16:24;12.33;;;8.77;;
68653;SDS011;55636;51.108;13.622;2024-01-06T00:17:30;11.03;;;8.57;;
68653;SDS011;55636;51.108;13.622;2024-01-06T00:18:33;11.70;;;8.67;;
68653;SDS011;55636;51.108;13.622;2024-01-06T00:19:35;10.53;;;8.80;;
68653;SDS011;55636;51.108;13.622;2024-01-06T00:20:38;11.30;;;9.13;;
68653;SDS011;55636;51.108;13.622;2024-01-06T00:21:42;10.20;;;8.83;;
68653;SDS011;55636;51.108;13.622;2024-01-06T00:22:48;10.57;;;8.70;;
68653;SDS011;55636;51.108;13.622;2024-01-06T00:23:50;10.63;;;8.93;;
68653;SDS011;55636;51.108;13.622;2024-01-06T00:24:53;10.87;;;8.80;;
68653;SDS011;55636;51.108;13.622;2024-01-06T00:25:56;9.17;;;8.27;;
68653;SDS011;55636;51.108;13.622;2024-01-06T00:26:59;10.50;;;8.97;;
68653;SDS011;55636;51.108;13.622;2024-01-06T00:28:01;10.23;;;8.77;;
68653;SDS011;55636;51.108;13.622;2024-01-06T00:29:04;11.77;;;9.40;;
68653;SDS011;55636;51.108;13.622;2024-01-06T00:30:06;10.37;;;8.60;;
68653;SDS011;55636;51.108;13.622;2024-01-06T00:31:10;12.03;;;8.70;;
68653;SDS011;55636;51.108;13.622;2024-01-06T00:32:13;10.67;;;8.50;;
68653;SDS011;55636;51.108;13.622;2024-01-06T00:33:15;10.93;;;8.43;;
68653;SDS011;55636;51.108;13.622;2024-01-06T00:34:19;9.70;;;8.63;;
68653;SDS011;55636;51.108;13.622;2024-01-06T00:35:22;10.50;;;8.77;;
68653;SDS011;55636;51.108;13.622;2024-01-06T00:36:24;10.53;;;8.70;;
68653;SDS011;55636;51.108;13.622;2024-01-06T00:37:28;11.27;;;9.17;;
68653;SDS011;55636;51.108;13.622;2024-01-06T00:38:31;11.07;;;8.77;;
68653;SDS011;55636;51.108;13.622;2024-01-06T00:39:33;10.30;;;8.60;;
68653;SDS011;55636;51.108;13.622;2024-01-06T00:40:35;10.10;;;8.50;;
68653;SDS011;55636;51.108;13.622;2024-01-06T00:41:38;10.63;;;9.00;;
68653;SDS011;55636;51.108;13.622;2024-01-06T00:42:44;11.20;;;9.13;;
68653;SDS011;55636;51.108;13.622;2024-01-06T00:43:46;10.73;;;8.90;;
68653;SDS011;55636;51.108;13.622;2024-01-06T00:44:53;11.67;;;9.07;;
68653;SDS011;55636;51.108;13.622;2024-01-06T00:45:55;10.27;;;8.87;;
68653;SDS011;55636;51.108;13.622;2024-01-06T00:46:58;11.13;;;8.90;;
68653;SDS011;55636;51.108;13.622;2024-01-06T00:48:01;11.53;;;8.43;;
68653;SDS011;55636;51.108;13.622;2024-01-06T00:49:04;10.87;;;8.67;;
68653;SDS011;55636;51.108;13.622;2024-01-06T00:50:07;11.63;;;9.07;;
68653;SDS011;55636;51.108;13.622;2024-01-06T00:51:09;11.67;;;9.13;;
68653;SDS011;55636;51.108;13.622;2024-01-06T00:52:12;11.97;;;9.63;;
68653;SDS011;55636;51.108;13.622;2024-01-06T00:53:15;10.40;;;8.90;;
68653;SDS011;55636;51.108;13.622;2024-01-06T00:54:18;11.47;;;9.10;;
68653;SDS011;55636;51.108;13.622;2024-01-06T00:55:22;12.00;;;9.40;;
68653;SDS011;55636;51.108;13.622;2024-01-06T00:56:25;11.80;;;9.30;;
68653;SDS011;55636;51.108;13.622;2024-01-06T00:57:29;10.17;;;9.07;;
68653;SDS011;55636;51.108;13.622;2024-01-06T00:58:33;11.43;;;9.17;;
68653;SDS011;55636;51.108;13.622;2024-01-06T00:59:35;10.23;;;8.90;;
68653;SDS011;55636;51.108;13.622;2024-01-06T01:00:38;12.23;;;9.50;;
68653;SDS011;55636;51.108;13.622;2024-01-06T01:01:40;10.40;;;8.83;;
68653;SDS011;55636;51.108;13.622;2024-01-06T01:02:43;11.80;;;9.30;;
68653;SDS011;55636;51.108;13.622;2024-01-06T01:03:45;12.03;;;9.27;;
68653;SDS011;55636;51.108;13.622;2024-01-06T01:04:48;11.93;;;9.40;;
68653;SDS011;55636;51.108;13.622;2024-01-06T01:05:51;12.67;;;9.73;;
68653;SDS011;55636;51.108;13.622;2024-01-06T01:06:53;13.13;;;9.80;;
68653;SDS011;55636;51.108;13.622;2024-01-06T01:07:56;12.03;;;9.93;;
68653;SDS011;55636;51.108;13.622;2024-01-06T01:08:58;12.47;;;9.50;;
68653;SDS011;55636;51.108;13.622;2024-01-06T01:10:00;13.90;;;9.83;;
68653;SDS011;55636;51.108;13.622;2024-01-06T01:11:03;12.20;;;10.10;;
68653;SDS011;55636;51.108;13.622;2024-01-06T01:12:05;14.53;;;10.10;;
68653;SDS011;55636;51.108;13.622;2024-01-06T01:13:08;12.10;;;9.87;;
68653;SDS011;55636;51.108;13.622;2024-01-06T01:14:11;12.80;;;10.03;;
68653;SDS011;55636;51.108;13.622;2024-01-06T01:15:13;13.17;;;10.23;;
68653;SDS011;55636;51.108;13.622;2024-01-06T01:16:17;12.57;;;9.83;;
68653;SDS011;55636;51.108;13.622;2024-01-06T01:17:20;13.03;;;10.77;;
68653;SDS011;55636;51.108;13.622;2024-01-06T01:18:24;14.07;;;10.43;;
68653;SDS011;55636;51.108;13.622;2024-01-06T01:19:26;12.20;;;10.30;;
68653;SDS011;55636;51.108;13.622;2024-01-06T01:20:29;11.90;;;10.07;;
68653;SDS011;55636;51.108;13.622;2024-01-06T01:21:33;13.10;;;10.60;;
68653;SDS011;55636;51.108;13.622;2024-01-06T01:22:35;15.93;;;10.77;;
68653;SDS011;55636;51.108;13.622;2024-01-06T01:23:38;13.07;;;10.60;;
68653;SDS011;55636;51.108;13.622;2024-01-06T01:24:41;12.97;;;10.60;;
68653;SDS011;55636;51.108;13.622;2024-01-06T01:25:45;11.80;;;10.30;;
68653;SDS011;55636;51.108;13.622;2024-01-06T01:26:47;13.33;;;10.27;;
68653;SDS011;55636;51.108;13.622;2024-01-06T01:27:52;12.23;;;10.37;;
68653;SDS011;55636;51.108;13.622;2024-01-06T01:28:55;13.23;;;10.80;;
68653;SDS011;55636;51.108;13.622;2024-01-06T01:29:57;14.13;;;10.37;;
68653;SDS011;55636;51.108;13.622;2024-01-06T01:31:00;12.27;;;10.40;;
68653;SDS011;55636;51.108;13.622;2024-01-06T01:32:03;11.87;;;10.27;;
68653;SDS011;55636;51.108;13.622;2024-01-06T01:33:06;13.00;;;10.37;;
68653;SDS011;55636;51.108;13.622;2024-01-06T01:34:10;11.63;;;10.17;;
68653;SDS011;55636;51.108;13.622;2024-01-06T01:35:13;12.10;;;10.63;;
68653;SDS011;55636;51.108;13.622;2024-01-06T01:36:16;15.13;;;10.97;;
68653;SDS011;55636;51.108;13.622;2024-01-06T01:37:20;14.13;;;10.87;;
68653;SDS011;55636;51.108;13.622;2024-01-06T01:38:23;12.20;;;10.90;;
68653;SDS011;55636;51.108;13.622;2024-01-06T01:39:26;14.03;;;11.20;;
68653;SDS011;55636;51.108;13.622;2024-01-06T01:40:28;11.93;;;10.63;;
68653;SDS011;55636;51.108;13.622;2024-01-06T01:41:31;14.43;;;11.00;;
68653;SDS011;55636;51.108;13.622;2024-01-06T01:42:33;13.83;;;11.30;;
68653;SDS011;55636;51.108;13.622;2024-01-06T01:43:36;14.47;;;10.80;;
68653;SDS011;55636;51.108;13.622;2024-01-06T01:44:38;13.10;;;10.47;;
68653;SDS011;55636;51.108;13.622;2024-01-06T01:45:41;12.87;;;10.47;;
68653;SDS011;55636;51.108;13.622;2024-01-06T01:46:44;13.50;;;10.87;;
68653;SDS011;55636;51.108;13.622;2024-01-06T01:47:48;13.07;;;11.17;;
68653;SDS011;55636;51.108;13.622;2024-01-06T01:48:52;13.00;;;10.37;;
68653;SDS011;55636;51.108;13.622;2024-01-06T01:49:57;14.73;;;10.70;;
68653;SDS011;55636;51.108;13.622;2024-01-06T01:51:03;14.07;;;10.77;;
68653;SDS011;55636;51.108;13.622;2024-01-06T01:52:05;13.50;;;11.20;;
68653;SDS011;55636;51.108;13.622;2024-01-06T01:53:10;13.57;;;10.83;;
68653;SDS011;55636;51.108;13.622;2024-01-06T01:54:17;14.23;;;11.30;;
68653;SDS011;55636;51.108;13.622;2024-01-06T01:55:19;14.40;;;10.87;;
68653;SDS011;55636;51.108;13.622;2024-01-06T01:56:22;14.20;;;11.80;;
68653;SDS011;55636;51.108;13.622;2024-01-06T01:57:26;13.10;;;11.03;;
68653;SDS011;55636;51.108;13.622;2024-01-06T01:58:29;15.70;;;11.77;;
68653;SDS011;55636;51.108;13.622;2024-01-06T01:59:32;13.67;;;11.17;;
68653;SDS011;55636;51.108;13.622;2024-01-06T02:00:36;14.07;;;10.97;;
68653;SDS011;55636;51.108;13.622;2024-01-06T02:01:51;14.13;;;11.47;;
68653;SDS011;55636;51.108;13.622;2024-01-06T02:02:54;14.53;;;11.73;;
68653;SDS011;55636;51.108;13.622;2024-01-06T02:03:57;13.83;;;11.00;;
68653;SDS011;55636;51.108;13.622;2024-01-06T02:05:06;13.70;;;11.37;;
68653;SDS011;55636;51.108;13.622;2024-01-06T02:06:10;15.07;;;11.80;;
68653;SDS011;55636;51.108;13.622;2024-01-06T02:07:16;12.33;;;11.03;;
68653;SDS011;55636;51.108;13.622;2024-01-06T02:08:19;15.13;;;11.60;;
68653;SDS011;55636;51.108;13.622;2024-01-06T02:09:23;13.90;;;11.30;;
68653;SDS011;55636;51.108;13.622;2024-01-06T02:10:34;15.27;;;11.90;;
68653;SDS011;55636;51.108;13.622;2024-01-06T02:11:36;13.50;;;11.70;;
68653;SDS011;55636;51.108;13.622;2024-01-06T02:12:39;13.63;;;11.67;;
68653;SDS011;55636;51.108;13.622;2024-01-06T02:13:43;14.63;;;11.57;;
68653;SDS011;55636;51.108;13.622;2024-01-06T02:14:45;15.40;;;11.70;;
68653;SDS011;55636;51.108;13.622;2024-01-06T02:15:49;15.97;;;11.73;;
68653;SDS011;55636;51.108;13.622;2024-01-06T02:16:51;14.20;;;11.67;;
68653;SDS011;55636;51.108;13.622;2024-01-06T02:17:54;14.80;;;12.13;;
68653;SDS011;55636;51.108;13.622;2024-01-06T02:18:57;14.47;;;12.10;;
68653;SDS011;55636;51.108;13.622;2024-01-06T02:20:02;14.43;;;11.97;;
68653;SDS011;55636;51.108;13.622;2024-01-06T02:21:07;15.83;;;11.70;;
68653;SDS011;55636;51.108;13.622;2024-01-06T02:22:10;14.90;;;12.10;;
68653;SDS011;55636;51.108;13.622;2024-01-06T02:23:13;14.77;;;12.33;;
68653;SDS011;55636;51.108;13.622;2024-01-06T02:24:15;14.53;;;11.27;;
68653;SDS011;55636;51.108;13.622;2024-01-06T02:25:23;16.17;;;11.97;;
68653;SDS011;55636;51.108;13.622;2024-01-06T02:26:25;15.30;;;12.30;;
68653;SDS011;55636;51.108;13.622;2024-01-06T02:27:28;13.83;;;11.87;;
68653;SDS011;55636;51.108;13.622;2024-01-06T02:28:30;16.13;;;11.90;;
68653;SDS011;55636;51.108;13.622;2024-01-06T02:29:32;14.50;;;12.00;;
68653;SDS011;55636;51.108;13.622;2024-01-06T02:30:35;13.43;;;11.10;;
68653;SDS011;55636;51.108;13.622;2024-01-06T02:31:40;14.47;;;11.67;;
68653;SDS011;55636;51.108;13.622;2024-01-06T02:32:43;15.80;;;12.27;;
68653;SDS011;55636;51.108;13.622;2024-01-06T02:33:46;13.57;;;12.13;;
68653;SDS011;55636;51.108;13.622;2024-01-06T02:34:48;14.47;;;11.57;;
68653;SDS011;55636;51.108;13.622;2024-01-06T02:35:51;15.73;;;12.33;;
68653;SDS011;55636;51.108;13.622;2024-01-06T02:36:56;15.53;;;11.93;;
68653;SDS011;55636;51.108;13.622;2024-01-06T02:37:58;14.50;;;12.23;;
68653;SDS011;55636;51.108;13.622;2024-01-06T02:39:00;14.67;;;12.50;;
68653;SDS011;55636;51.108;13.622;2024-01-06T02:40:05;16.67;;;12.83;;
68653;SDS011;55636;51.108;13.622;2024-01-06T02:41:08;16.00;;;12.60;;
68653;SDS011;55636;51.108;13.622;2024-01-06T02:42:12;13.57;;;12.17;;
68653;SDS011;55636;51.108;13.622;2024-01-06T02:43:16;16.27;;;12.10;;
68653;SDS011;55636;51.108;13.622;2024-01-06T02:44:23;14.73;;;12.27;;
68653;SDS011;55636;51.108;13.622;2024-01-06T02:45:26;14.70;;;12.53;;
68653;SDS011;55636;51.108;13.622;2024-01-06T02:46:29;15.70;;;12.30;;
68653;SDS011;55636;51.108;13.622;2024-01-06T02:47:31;13.83;;;11.27;;
68653;SDS011;55636;51.108;13.622;2024-01-06T02:48:34;14.70;;;12.00;;
68653;SDS011;55636;51.108;13.622;2024-01-06T02:49:37;14.70;;;12.37;;
68653;SDS011;55636;51.108;13.622;2024-01-06T02:50:39;16.10;;;12.33;;
68653;SDS011;55636;51.108;13.622;2024-01-06T02:51:42;14.37;;;12.43;;
68653;SDS011;55636;51.108;13.622;2024-01-06T02:52:45;14.23;;;12.37;;
68653;SDS011;55636;51.108;13.622;2024-01-06T02:53:49;17.77;;;11.87;;
68653;SDS011;55636;51.108;13.622;2024-01-06T02:54:51;15.73;;;12.67;;
68653;SDS011;55636;51.108;13.622;2024-01-06T02:55:54;13.67;;;11.30;;
68653;SDS011;55636;51.108;13.622;2024-01-06T02:56:56;15.37;;;12.10;;
68653;SDS011;55636;51.108;13.622;2024-01-06T02:57:59;16.33;;;12.33;;
68653;SDS011;55636;51.108;13.622;2024-01-06T02:59:02;14.87;;;12.33;;
68653;SDS011;55636;51.108;13.622;2024-01-06T03:00:05;15.37;;;12.37;;
68653;SDS011;55636;51.108;13.622;2024-01-06T03:01:08;15.97;;;12.43;;
68653;SDS011;55636;51.108;13.622;2024-01-06T03:02:17;15.73;;;12.27;;
68653;SDS011;55636;51.108;13.622;2024-01-06T03:03:21;14.63;;;12.20;;
68653;SDS011;55636;51.108;13.622;2024-01-06T03:04:23;15.67;;;12.03;;
68653;SDS011;55636;51.108;13.622;2024-01-06T03:05:26;15.03;;;12.27;;
68653;SDS011;55636;51.108;13.622;2024-01-06T03:06:30;14.40;;;12.33;;
68653;SDS011;55636;51.108;13.622;2024-01-06T03:07:32;14.23;;;12.63;;
68653;SDS011;55636;51.108;13.622;2024-01-06T03:08:36;15.07;;;11.83;;
68653;SDS011;55636;51.108;13.622;2024-01-06T03:09:39;15.13;;;12.20;;
68653;SDS011;55636;51.108;13.622;2024-01-06T03:10:42;16.53;;;12.27;;
68653;SDS011;55636;51.108;13.622;2024-01-06T03:11:48;15.80;;;12.77;;
68653;SDS011;55636;51.108;13.622;2024-01-06T03:12:50;16.20;;;12.43;;
68653;SDS011;55636;51.108;13.622;2024-01-06T03:13:53;15.27;;;12.33;;
68653;SDS011;55636;51.108;13.622;2024-01-06T03:14:55;16.40;;;12.00;;
68653;SDS011;55636;51.108;13.622;2024-01-06T03:16:02;16.67;;;12.80;;
68653;SDS011;55636;51.108;13.622;2024-01-06T03:17:06;15.50;;;13.20;;
68653;SDS011;55636;51.108;13.622;2024-01-06T03:18:12;17.40;;;12.77;;
68653;SDS011;55636;51.108;13.622;2024-01-06T03:19:14;15.40;;;12.80;;
68653;SDS011;55636;51.108;13.622;2024-01-06T03:20:17;15.13;;;11.93;;
68653;SDS011;55636;51.108;13.622;2024-01-06T03:21:21;14.53;;;12.47;;
68653;SDS011;55636;51.108;13.622;2024-01-06T03:22:23;14.27;;;11.90;;
68653;SDS011;55636;51.108;13.622;2024-01-06T03:23:26;14.03;;;12.20;;
68653;SDS011;55636;51.108;13.622;2024-01-06T03:24:30;16.30;;;12.70;;
68653;SDS011;55636;51.108;13.622;2024-01-06T03:25:33;14.50;;;12.80;;
68653;SDS011;55636;51.108;13.622;2024-01-06T03:26:36;15.27;;;12.50;;
68653;SDS011;55636;51.108;13.622;2024-01-06T03:27:40;15.83;;;12.60;;
68653;SDS011;55636;51.108;13.622;2024-01-06T03:28:42;14.67;;;12.20;;
68653;SDS011;55636;51.108;13.622;2024-01-06T03:29:45;15.67;;;12.30;;
68653;SDS011;55636;51.108;13.622;2024-01-06T03:30:48;14.90;;;11.90;;
68653;SDS011;55636;51.108;13.622;2024-01-06T03:31:51;15.00;;;12.57;;
68653;SDS011;55636;51.108;13.622;2024-01-06T03:32:53;17.27;;;12.83;;
68653;SDS011;55636;51.108;13.622;2024-01-06T03:33:59;16.03;;;12.90;;
68653;SDS011;55636;51.108;13.622;2024-01-06T03:35:01;15.23;;;12.23;;
68653;SDS011;55636;51.108;13.622;2024-01-06T03:36:06;16.87;;;12.57;;
68653;SDS011;55636;51.108;13.622;2024-01-06T03:37:09;15.87;;;12.73;;
68653;SDS011;55636;51.108;13.622;2024-01-06T03:38:12;16.03;;;12.23;;
68653;SDS011;55636;51.108;13.622;2024-01-06T03:39:15;15.57;;;12.37;;
68653;SDS011;55636;51.108;13.622;2024-01-06T03:40:18;15.53;;;13.27;;
68653;SDS011;55636;51.108;13.622;2024-01-06T03:41:21;14.90;;;12.30;;
68653;SDS011;55636;51.108;13.622;2024-01-06T03:42:25;14.63;;;12.53;;
68653;SDS011;55636;51.108;13.622;2024-01-06T03:43:28;16.83;;;12.67;;
68653;SDS011;55636;51.108;13.622;2024-01-06T03:44:30;14.70;;;12.43;;
68653;SDS011;55636;51.108;13.622;2024-01-06T03:45:36;14.07;;;11.57;;
68653;SDS011;55636;51.108;13.622;2024-01-06T03:46:39;14.50;;;12.57;;
68653;SDS011;55636;51.108;13.622;2024-01-06T03:47:42;18.20;;;13.80;;
68653;SDS011;55636;51.108;13.622;2024-01-06T03:48:45;14.50;;;12.17;;
68653;SDS011;55636;51.108;13.622;2024-01-06T03:49:48;15.67;;;12.37;;
68653;SDS011;55636;51.108;13.622;2024-01-06T03:50:51;14.80;;;13.10;;
68653;SDS011;55636;51.108;13.622;2024-01-06T03:51:55;16.47;;;12.60;;
68653;SDS011;55636;51.108;13.622;2024-01-06T03:53:00;15.60;;;12.90;;
68653;SDS011;55636;51.108;13.622;2024-01-06T03:54:02;15.73;;;12.63;;
68653;SDS011;55636;51.108;13.622;2024-01-06T03:55:05;17.17;;;12.90;;
68653;SDS011;55636;51.108;13.622;2024-01-06T03:56:08;15.33;;;12.63;;
68653;SDS011;55636;51.108;13.622;2024-01-06T03:57:11;14.00;;;12.43;;
68653;SDS011;55636;51.108;13.622;2024-01-06T03:58:14;15.33;;;12.30;;
68653;SDS011;55636;51.108;13.622;2024-01-06T03:59:17;15.60;;;12.30;;
68653;SDS011;55636;51.108;13.622;2024-01-06T04:00:20;15.30;;;13.07;;
68653;SDS011;55636;51.108;13.622;2024-01-06T04:01:23;16.37;;;13.20;;
68653;SDS011;55636;51.108;13.622;2024-01-06T04:02:25;15.47;;;12.60;;
68653;SDS011;55636;51.108;13.622;2024-01-06T04:03:28;16.67;;;12.77;;
68653;SDS011;55636;51.108;13.622;2024-01-06T04:04:30;15.30;;;12.90;;
68653;SDS011;55636;51.108;13.622;2024-01-06T04:05:33;14.00;;;12.43;;
68653;SDS011;55636;51.108;13.622;2024-01-06T04:06:36;15.23;;;12.97;;
68653;SDS011;55636;51.108;13.622;2024-01-06T04:07:39;14.20;;;12.60;;
68653;SDS011;55636;51.108;13.622;2024-01-06T04:08:41;15.00;;;12.50;;
68653;SDS011;55636;51.108;13.622;2024-01-06T04:09:44;16.90;;;12.87;;
68653;SDS011;55636;51.108;13.622;2024-01-06T04:10:48;14.87;;;13.03;;
68653;SDS011;55636;51.108;13.622;2024-01-06T04:11:51;16.30;;;13.17;;
68653;SDS011;55636;51.108;13.622;2024-01-06T04:12:55;14.30;;;11.87;;
68653;SDS011;55636;51.108;13.622;2024-01-06T04:13:59;16.40;;;12.80;;
68653;SDS011;55636;51.108;13.622;2024-01-06T04:15:01;15.77;;;12.63;;
68653;SDS011;55636;51.108;13.622;2024-01-06T04:16:03;16.30;;;12.83;;
68653;SDS011;55636;51.108;13.622;2024-01-06T04:17:07;15.63;;;12.77;;
68653;SDS011;55636;51.108;13.622;2024-01-06T04:18:10;16.03;;;12.87;;
68653;SDS011;55636;51.108;13.622;2024-01-06T04:19:13;16.50;;;13.50;;
68653;SDS011;55636;51.108;13.622;2024-01-06T04:20:18;18.83;;;13.43;;
68653;SDS011;55636;51.108;13.622;2024-01-06T04:21:21;18.00;;;13.77;;
68653;SDS011;55636;51.108;13.622;2024-01-06T04:22:24;16.17;;;13.23;;
68653;SDS011;55636;51.108;13.622;2024-01-06T04:23:31;15.77;;;13.30;;
68653;SDS011;55636;51.108;13.622;2024-01-06T04:24:35;17.03;;;13.47;;
68653;SDS011;55636;51.108;13.622;2024-01-06T04:25:42;15.50;;;12.90;;
68653;SDS011;55636;51.108;13.622;2024-01-06T04:26:44;14.47;;;11.93;;
68653;SDS011;55636;51.108;13.622;2024-01-06T04:27:52;15.40;;;12.63;;
68653;SDS011;55636;51.108;13.622;2024-01-06T04:28:55;16.20;;;12.73;;
68653;SDS011;55636;51.108;13.622;2024-01-06T04:30:00;16.20;;;13.27;;
68653;SDS011;55636;51.108;13.622;2024-01-06T04:31:03;15.90;;;12.77;;
68653;SDS011;55636;51.108;13.622;2024-01-06T04:32:05;15.67;;;12.90;;
68653;SDS011;55636;51.108;13.622;2024-01-06T04:33:10;15.83;;;12.63;;
68653;SDS011;55636;51.108;13.622;2024-01-06T04:34:16;17.73;;;13.47;;
68653;SDS011;55636;51.108;13.622;2024-01-06T04:35:21;14.93;;;12.73;;
68653;SDS011;55636;51.108;13.622;2024-01-06T04:36:26;15.77;;;12.93;;
68653;SDS011;55636;51.108;13.622;2024-01-06T04:37:28;15.13;;;12.33;;
68653;SDS011;55636;51.108;13.622;2024-01-06T04:38:33;15.23;;;12.50;;
68653;SDS011;55636;51.108;13.622;2024-01-06T04:39:37;15.07;;;12.37;;
68653;SDS011;55636;51.108;13.622;2024-01-06T04:40:40;13.80;;;11.83;;
68653;SDS011;55636;51.108;13.622;2024-01-06T04:41:42;15.13;;;12.33;;
68653;SDS011;55636;51.108;13.622;2024-01-06T04:42:47;15.50;;;12.10;;
68653;SDS011;55636;51.108;13.622;2024-01-06T04:43:50;13.47;;;12.00;;
68653;SDS011;55636;51.108;13.622;2024-01-06T04:44:52;16.27;;;12.50;;
68653;SDS011;55636;51.108;13.622;2024-01-06T04:45:57;15.00;;;12.53;;
68653;SDS011;55636;51.108;13.622;2024-01-06T04:47:01;15.27;;;12.40;;
68653;SDS011;55636;51.108;13.622;2024-01-06T04:48:05;14.57;;;12.40;;
68653;SDS011;55636;51.108;13.622;2024-01-06T04:49:08;15.87;;;12.60;;
68653;SDS011;55636;51.108;13.622;2024-01-06T04:50:12;14.77;;;12.10;;
68653;SDS011;55636;51.108;13.622;2024-01-06T04:51:14;15.40;;;12.60;;
68653;SDS011;55636;51.108;13.622;2024-01-06T04:52:17;14.20;;;12.00;;
68653;SDS011;55636;51.108;13.622;2024-01-06T04:53:20;14.17;;;11.80;;
68653;SDS011;55636;51.108;13.622;2024-01-06T04:54:22;15.10;;;12.40;;
68653;SDS011;55636;51.108;13.622;2024-01-06T04:55:26;14.47;;;12.40;;
68653;SDS011;55636;51.108;13.622;2024-01-06T04:56:33;13.83;;;11.93;;
68653;SDS011;55636;51.108;13.622;2024-01-06T04:57:37;14.87;;;12.10;;
68653;SDS011;55636;51.108;13.622;2024-01-06T04:58:40;15.83;;;12.40;;
68653;SDS011;55636;51.108;13.622;2024-01-06T04:59:42;16.23;;;12.13;;
68653;SDS011;55636;51.108;13.622;2024-01-06T05:00:45;15.33;;;13.23;;
68653;SDS011;55636;51.108;13.622;2024-01-06T05:01:47;14.77;;;11.90;;
68653;SDS011;55636;51.108;13.622;2024-01-06T05:02:50;15.50;;;12.30;;
68653;SDS011;55636;51.108;13.622;2024-01-06T05:03:54;14.13;;;12.10;;
68653;SDS011;55636;51.108;13.622;2024-01-06T05:04:58;13.47;;;11.57;;
68653;SDS011;55636;51.108;13.622;2024-01-06T05:06:01;13.57;;;11.60;;
68653;SDS011;55636;51.108;13.622;2024-01-06T05:07:04;15.70;;;12.57;;
68653;SDS011;55636;51.108;13.622;2024-01-06T05:08:07;13.70;;;12.17;;
68653;SDS011;55636;51.108;13.622;2024-01-06T05:09:09;13.80;;;12.10;;
68653;SDS011;55636;51.108;13.622;2024-01-06T05:10:12;14.93;;;11.90;;
68653;SDS011;55636;51.108;13.622;2024-01-06T05:11:15;15.63;;;11.73;;
68653;SDS011;55636;51.108;13.622;2024-01-06T05:12:17;15.50;;;12.53;;
68653;SDS011;55636;51.108;13.622;2024-01-06T05:13:21;14.37;;;11.83;;
68653;SDS011;55636;51.108;13.622;2024-01-06T05:14:23;14.20;;;12.03;;
68653;SDS011;55636;51.108;13.622;2024-01-06T05:15:26;13.53;;;12.03;;
68653;SDS011;55636;51.108;13.622;2024-01-06T05:16:30;14.60;;;11.27;;
68653;SDS011;55636;51.108;13.622;2024-01-06T05:17:32;14.80;;;12.20;;
68653;SDS011;55636;51.108;13.622;2024-01-06T05:18:35;15.33;;;11.70;;
68653;SDS011;55636;51.108;13.622;2024-01-06T05:19:37;13.70;;;11.60;;
68653;SDS011;55636;51.108;13.622;2024-01-06T05:20:40;14.33;;;11.93;;
68653;SDS011;55636;51.108;13.622;2024-01-06T05:21:46;14.13;;;11.77;;
68653;SDS011;55636;51.108;13.622;2024-01-06T05:22:51;17.30;;;12.03;;
68653;SDS011;55636;51.108;13.622;2024-01-06T05:23:59;14.93;;;11.40;;
68653;SDS011;55636;51.108;13.622;2024-01-06T05:25:02;12.47;;;11.00;;
68653;SDS011;55636;51.108;13.622;2024-01-06T05:26:05;13.33;;;11.30;;
68653;SDS011;55636;51.108;13.622;2024-01-06T05:27:07;14.87;;;11.93;;
68653;SDS011;55636;51.108;13.622;2024-01-06T05:28:14;15.20;;;11.70;;
68653;SDS011;55636;51.108;13.622;2024-01-06T05:29:17;13.57;;;11.30;;
68653;SDS011;55636;51.108;13.622;2024-01-06T05:30:20;14.00;;;10.90;;
68653;SDS011;55636;51.108;13.622;2024-01-06T05:31:24;14.27;;;11.63;;
68653;SDS011;55636;51.108;13.622;2024-01-06T05:32:27;13.20;;;11.47;;
68653;SDS011;55636;51.108;13.622;2024-01-06T05:33:29;13.90;;;11.07;;
68653;SDS011;55636;51.108;13.622;2024-01-06T05:34:32;13.00;;;11.17;;
68653;SDS011;55636;51.108;13.622;2024-01-06T05:35:35;13.30;;;11.23;;
68653;SDS011;55636;51.108;13.622;2024-01-06T05:36:39;12.60;;;10.63;;
68653;SDS011;55636;51.108;13.622;2024-01-06T05:37:41;13.70;;;11.70;;
68653;SDS011;55636;51.108;13.622;2024-01-06T05:38:45;13.97;;;10.93;;
68653;SDS011;55636;51.108;13.622;2024-01-06T05:39:52;14.00;;;11.00;;
68653;SDS011;55636;51.108;13.622;2024-01-06T05:40:57;13.33;;;10.87;;
68653;SDS011;55636;51.108;13.622;2024-01-06T05:42:00;12.83;;;10.77;;
68653;SDS011;55636;51.108;13.622;2024-01-06T05:43:02;14.07;;;11.67;;
68653;SDS011;55636;51.108;13.622;2024-01-06T05:44:05;12.07;;;10.80;;
68653;SDS011;55636;51.108;13.622;2024-01-06T05:45:10;13.67;;;11.47;;
68653;SDS011;55636;51.108;13.622;2024-01-06T05:46:24;12.97;;;11.00;;
68653;SDS011;55636;51.108;13.622;2024-01-06T05:47:26;12.90;;;11.00;;
68653;SDS011;55636;51.108;13.622;2024-01-06T05:48:29;12.60;;;10.57;;
68653;SDS011;55636;51.108;13.622;2024-01-06T05:49:32;14.03;;;11.33;;
68653;SDS011;55636;51.108;13.622;2024-01-06T05:50:38;15.60;;;11.97;;
68653;SDS011;55636;51.108;13.622;2024-01-06T05:51:45;13.20;;;10.77;;
68653;SDS011;55636;51.108;13.622;2024-01-06T05:52:48;13.10;;;11.63;;
68653;SDS011;55636;51.108;13.622;2024-01-06T05:53:51;13.63;;;11.50;;
68653;SDS011;55636;51.108;13.622;2024-01-06T05:54:54;13.03;;;11.30;;
68653;SDS011;55636;51.108;13.622;2024-01-06T05:55:56;12.93;;;11.50;;
68653;SDS011;55636;51.108;13.622;2024-01-06T05:56:59;15.63;;;11.87;;
68653;SDS011;55636;51.108;13.622;2024-01-06T05:58:02;14.17;;;12.10;;
68653;SDS011;55636;51.108;13.622;2024-01-06T05:59:05;14.23;;;12.13;;
68653;SDS011;55636;51.108;13.622;2024-01-06T06:00:08;15.73;;;12.90;;
68653;SDS011;55636;51.108;13.622;2024-01-06T06:01:14;15.47;;;12.50;;
68653;SDS011;55636;51.108;13.622;2024-01-06T06:02:16;14.43;;;12.33;;
68653;SDS011;55636;51.108;13.622;2024-01-06T06:03:19;15.93;;;12.67;;
68653;SDS011;55636;51.108;13.622;2024-01-06T06:04:22;13.97;;;12.47;;
68653;SDS011;55636;51.108;13.622;2024-01-06T06:05:25;15.10;;;11.93;;
68653;SDS011;55636;51.108;13.622;2024-01-06T06:06:28;15.90;;;12.87;;